Time;durP1;ratioP1;P1;durP2;ratioP2;P2;SDS_P1;SDS_P2;PMS_P1;PMS_P2;Temp;Humidity;BMP_temperature;BMP_pressure;BME280_temperature;BME280_humidity;BME280_pressure;Samples;Min_cycle;Max_cycle;Signal;HPM_P1;HPM_P2
2023/09/22 00:00:15;;;;;;;755.23;723.73;;;13.80;99.90;;;;;;5122820;27;20817;-71
2023/09/22 00:02:43;;;;;;;713.80;685.03;;;13.90;99.90;;;;;;5112340;28;20448;-71
2023/09/22 00:05:12;;;;;;;762.27;730.40;;;14.00;99.90;;;;;;5111185;28;20476;-71
2023/09/22 00:07:40;;;;;;;765.07;732.70;;;13.90;99.90;;;;;;5112741;28;20450;-72
2023/09/22 00:10:07;;;;;;;740.93;709.97;;;13.80;99.90;;;;;;5112432;28;20451;-71
2023/09/22 00:12:34;;;;;;;659.80;633.60;;;14.00;99.90;;;;;;5112575;28;20954;-71
2023/09/22 00:15:03;;;;;;;679.60;651.87;;;13.90;99.90;;;;;;5112961;28;20448;-71
2023/09/22 00:17:30;;;;;;;667.03;639.23;;;13.80;99.90;;;;;;5112481;28;20449;-72
2023/09/22 00:19:58;;;;;;;716.57;685.07;;;13.50;99.90;;;;;;5112502;28;20455;-71
2023/09/22 00:22:25;;;;;;;763.30;729.60;;;13.40;99.90;;;;;;5112638;28;20452;-71
2023/09/22 00:24:51;;;;;;;750.30;717.17;;;13.30;99.90;;;;;;5113530;28;21003;-71
2023/09/22 00:27:19;;;;;;;742.60;709.73;;;13.20;99.90;;;;;;5116784;28;20440;-71
2023/09/22 00:29:45;;;;;;;753.13;719.23;;;13.00;99.90;;;;;;5116703;28;20853;-71
2023/09/22 00:32:12;;;;;;;729.43;697.03;;;13.00;99.90;;;;;;5116418;28;20440;-71
2023/09/22 00:34:39;;;;;;;755.03;720.63;;;12.90;99.90;;;;;;5116804;28;20444;-71
2023/09/22 00:37:08;;;;;;;764.90;730.50;;;12.80;99.90;;;;;;5116449;28;21024;-71
2023/09/22 00:39:35;;;;;;;781.80;746.40;;;12.80;99.90;;;;;;5116508;28;20444;-72
2023/09/22 00:42:05;;;;;;;778.97;743.57;;;12.70;99.90;;;;;;5116342;27;20893;-71
2023/09/22 00:44:32;;;;;;;788.33;752.33;;;12.70;99.90;;;;;;5116174;28;20473;-71
2023/09/22 00:47:00;;;;;;;799.03;762.47;;;12.70;99.90;;;;;;5116546;27;20451;-71
2023/09/22 00:49:28;;;;;;;855.23;813.23;;;12.60;99.90;;;;;;5116324;28;20508;-72
2023/09/22 00:51:55;;;;;;;814.43;776.73;;;12.60;99.90;;;;;;5116001;28;20456;-71
2023/09/22 00:54:24;;;;;;;833.80;794.93;;;12.50;99.90;;;;;;5116133;28;20931;-71
2023/09/22 00:56:51;;;;;;;838.03;798.77;;;12.50;99.90;;;;;;5116166;28;20916;-71
2023/09/22 00:59:19;;;;;;;844.17;805.07;;;12.40;99.90;;;;;;5115744;28;20444;-71
2023/09/22 01:01:46;;;;;;;839.73;800.73;;;12.40;99.90;;;;;;5115901;28;20936;-71
2023/09/22 01:04:13;;;;;;;842.70;803.50;;;12.40;99.90;;;;;;5116126;28;20476;-71
2023/09/22 01:06:40;;;;;;;833.70;794.70;;;12.30;99.90;;;;;;5115920;28;20505;-71
2023/09/22 01:09:07;;;;;;;838.23;799.20;;;12.30;99.90;;;;;;5116211;28;20797;-71
2023/09/22 01:11:35;;;;;;;874.60;833.47;;;12.30;99.90;;;;;;5115552;28;20444;-71
2023/09/22 01:14:02;;;;;;;873.93;832.83;;;12.30;99.90;;;;;;5115713;28;20449;-71
2023/09/22 01:16:30;;;;;;;862.83;822.53;;;12.30;99.90;;;;;;5115968;28;20905;-71
2023/09/22 01:18:57;;;;;;;873.47;832.17;;;12.20;99.90;;;;;;5115664;27;20445;-71
2023/09/22 01:21:28;;;;;;;868.67;827.17;;;12.20;99.90;;;;;;5115434;28;20963;-71
2023/09/22 01:23:55;;;;;;;877.00;834.80;;;12.30;99.90;;;;;;5115547;28;20998;-71
2023/09/22 01:26:22;;;;;;;862.27;821.00;;;12.30;99.90;;;;;;5115469;28;20447;-71
2023/09/22 01:28:49;;;;;;;881.73;839.20;;;12.20;99.90;;;;;;5115603;27;20448;-71
2023/09/22 01:31:16;;;;;;;867.47;825.57;;;12.20;99.90;;;;;;5115328;28;20449;-71
2023/09/22 01:33:45;;;;;;;868.10;826.30;;;12.20;99.90;;;;;;5115481;28;20440;-71
2023/09/22 01:36:14;;;;;;;874.00;831.80;;;12.30;99.90;;;;;;5114591;28;20531;-71
2023/09/22 01:38:42;;;;;;;874.90;832.40;;;12.20;99.90;;;;;;5115173;28;20445;-71
2023/09/22 01:41:11;;;;;;;873.60;831.50;;;12.20;99.90;;;;;;5115263;28;20461;-71
2023/09/22 01:43:38;;;;;;;884.47;842.00;;;12.10;99.90;;;;;;5115067;28;20936;-71
2023/09/22 01:46:05;;;;;;;882.17;839.93;;;12.20;99.90;;;;;;5115164;28;20936;-71
2023/09/22 01:48:32;;;;;;;890.53;848.00;;;12.00;99.90;;;;;;5115089;28;20452;-71
2023/09/22 01:51:02;;;;;;;897.23;854.33;;;11.90;99.90;;;;;;5114696;28;20457;-71
2023/09/22 01:53:29;;;;;;;881.83;840.07;;;11.90;99.90;;;;;;5114928;28;20451;-71
2023/09/22 01:55:57;;;;;;;888.60;846.60;;;11.80;99.90;;;;;;5115199;28;20539;-71
2023/09/22 01:58:24;;;;;;;898.13;855.63;;;11.80;99.90;;;;;;5114910;28;20449;-71
2023/09/22 02:00:52;;;;;;;907.50;864.50;;;11.70;99.90;;;;;;5114599;28;20451;-71
2023/09/22 02:03:19;;;;;;;908.07;865.37;;;11.70;99.90;;;;;;5114872;28;20456;-71
2023/09/22 02:05:45;;;;;;;911.10;868.30;;;11.70;99.90;;;;;;5114655;28;20482;-71
2023/09/22 02:08:12;;;;;;;892.73;851.03;;;11.50;99.90;;;;;;5115026;28;20453;-71
2023/09/22 02:10:39;;;;;;;895.90;854.00;;;11.50;99.90;;;;;;5114607;28;20451;-71
2023/09/22 02:13:09;;;;;;;881.53;840.60;;;11.50;99.90;;;;;;5114527;28;20453;-71
2023/09/22 02:15:36;;;;;;;882.47;841.67;;;11.40;99.90;;;;;;5114652;28;20477;-71
2023/09/22 02:18:04;;;;;;;888.33;846.67;;;11.40;99.90;;;;;;5114534;28;20448;-71
2023/09/22 02:20:31;;;;;;;882.43;840.93;;;11.40;99.90;;;;;;5114123;28;20543;-71
2023/09/22 02:22:59;;;;;;;890.13;847.93;;;11.50;99.90;;;;;;5114655;28;20484;-71
2023/09/22 02:25:26;;;;;;;913.93;870.23;;;11.50;99.90;;;;;;5114499;28;20476;-71
2023/09/22 02:27:54;;;;;;;892.13;849.60;;;11.30;99.90;;;;;;5114441;28;20445;-71
2023/09/22 02:30:23;;;;;;;890.23;848.00;;;11.30;99.90;;;;;;5114169;27;20582;-71
2023/09/22 02:32:50;;;;;;;894.30;851.60;;;11.30;99.90;;;;;;5114196;28;20444;-71
2023/09/22 02:35:18;;;;;;;894.60;851.80;;;11.20;99.90;;;;;;5114170;28;20441;-71
2023/09/22 02:37:45;;;;;;;899.80;856.63;;;11.30;99.90;;;;;;5114325;28;20540;-71
2023/09/22 02:40:14;;;;;;;901.63;858.33;;;11.20;99.90;;;;;;5113990;27;20445;-71
2023/09/22 02:42:41;;;;;;;901.73;858.43;;;11.20;99.90;;;;;;5114481;28;20445;-71
2023/09/22 02:45:10;;;;;;;902.20;858.87;;;11.10;99.90;;;;;;5114072;28;20838;-71
2023/09/22 02:47:38;;;;;;;901.63;858.10;;;11.10;99.90;;;;;;5113823;28;20535;-71
2023/09/22 02:50:10;;;;;;;905.70;861.87;;;11.10;99.90;;;;;;5113899;28;20441;-71
2023/09/22 02:52:38;;;;;;;895.47;852.30;;;11.10;99.90;;;;;;5113787;28;20460;-71
2023/09/22 02:55:07;;;;;;;897.77;854.37;;;11.00;99.90;;;;;;5113785;28;20440;-71
2023/09/22 02:57:34;;;;;;;908.20;864.10;;;11.10;99.90;;;;;;5113771;28;20448;-71
2023/09/22 03:00:02;;;;;;;929.43;883.93;;;11.00;99.90;;;;;;5113329;28;20448;-71
2023/09/22 03:02:32;;;;;;;925.13;880.23;;;11.00;99.90;;;;;;5113920;28;20539;-71
2023/09/22 03:05:01;;;;;;;931.50;885.70;;;11.10;99.90;;;;;;5113508;28;20479;-71
2023/09/22 03:07:27;;;;;;;938.90;892.50;;;11.10;99.90;;;;;;5113653;28;20567;-70
2023/09/22 03:09:54;;;;;;;932.00;885.80;;;11.20;99.90;;;;;;5113400;27;20950;-70
2023/09/22 03:12:21;;;;;;;917.93;872.13;;;11.30;99.90;;;;;;5113376;27;20448;-70
2023/09/22 03:14:49;;;;;;;912.00;866.47;;;11.30;99.90;;;;;;5113891;28;20441;-70
2023/09/22 03:17:16;;;;;;;935.87;888.83;;;11.40;99.90;;;;;;5113655;28;20474;-71
2023/09/22 03:19:42;;;;;;;943.50;895.50;;;11.50;99.90;;;;;;5113363;28;20451;-71
2023/09/22 03:22:11;;;;;;;953.13;904.67;;;11.50;99.90;;;;;;5113131;28;20453;-71
2023/09/22 03:24:37;;;;;;;958.90;909.60;;;11.60;99.90;;;;;;5113136;28;21042;-70
2023/09/22 03:27:04;;;;;;;962.13;912.43;;;11.70;99.90;;;;;;5113119;28;20448;-71
2023/09/22 03:29:31;;;;;;;974.67;923.90;;;11.80;99.90;;;;;;5113310;28;20884;-70
2023/09/22 03:31:58;;;;;;;967.17;916.37;;;11.90;99.90;;;;;;5113141;28;20448;-71
2023/09/22 03:34:25;;;;;;;992.23;939.97;;;11.90;99.90;;;;;;5113264;28;20958;-71
2023/09/22 03:36:52;;;;;;;1003.70;950.80;;;12.00;99.90;;;;;;5113049;28;20452;-71
2023/09/22 03:39:22;;;;;;;1005.40;952.57;;;12.10;99.90;;;;;;5112986;27;20823;-71
2023/09/22 03:41:52;;;;;;;1004.17;951.27;;;12.10;99.90;;;;;;5112655;28;20944;-71
2023/09/22 03:44:19;;;;;;;1010.93;957.70;;;12.00;99.90;;;;;;5113069;28;20453;-71
2023/09/22 03:46:46;;;;;;;1003.20;950.47;;;12.00;99.90;;;;;;5112894;28;20452;-71
2023/09/22 03:49:13;;;;;;;978.03;926.73;;;12.10;99.90;;;;;;5112726;28;20460;-70
2023/09/22 03:51:40;;;;;;;975.57;923.87;;;12.10;99.90;;;;;;5112586;28;20463;-71
2023/09/22 03:54:07;;;;;;;976.03;924.63;;;12.10;99.90;;;;;;5112735;28;20449;-70
2023/09/22 03:56:37;;;;;;;973.80;922.50;;;12.20;99.90;;;;;;5112734;28;20453;-71
2023/09/22 03:59:04;;;;;;;965.20;914.00;;;12.20;99.90;;;;;;5112409;28;20457;-71
2023/09/22 04:01:32;;;;;;;962.53;911.40;;;12.20;99.90;;;;;;5112583;28;20448;-71
2023/09/22 04:03:59;;;;;;;961.30;910.23;;;12.20;99.90;;;;;;5112533;28;20444;-71
2023/09/22 04:06:26;;;;;;;948.07;897.60;;;12.20;99.90;;;;;;5112601;28;20482;-71
2023/09/22 04:08:54;;;;;;;931.30;881.97;;;12.10;99.90;;;;;;5112451;28;20444;-71
2023/09/22 04:11:21;;;;;;;935.20;885.50;;;12.10;99.90;;;;;;5112543;28;20448;-71
2023/09/22 04:13:49;;;;;;;931.07;881.07;;;12.30;99.90;;;;;;5112754;28;20541;-71
2023/09/22 04:16:16;;;;;;;934.77;884.27;;;12.30;99.90;;;;;;5112737;28;20532;-71
2023/09/22 04:18:43;;;;;;;933.53;883.07;;;12.30;99.90;;;;;;5112599;28;20536;-71
2023/09/22 04:21:10;;;;;;;951.17;899.87;;;12.40;99.90;;;;;;5112118;28;20448;-71
2023/09/22 04:23:39;;;;;;;940.40;889.70;;;12.30;99.90;;;;;;5112454;28;20448;-71
2023/09/22 04:26:09;;;;;;;934.80;884.40;;;12.40;99.90;;;;;;5112766;28;20476;-71
2023/09/22 04:28:36;;;;;;;932.03;881.83;;;12.30;99.90;;;;;;5112459;28;20444;-71
2023/09/22 04:31:04;;;;;;;937.30;886.80;;;12.30;99.90;;;;;;5112255;28;20444;-71
2023/09/22 04:33:32;;;;;;;934.10;883.90;;;12.30;99.90;;;;;;5112537;28;20452;-71
2023/09/22 04:35:59;;;;;;;920.03;870.43;;;12.30;99.90;;;;;;5112338;28;20445;-71
2023/09/22 04:38:26;;;;;;;903.77;854.87;;;12.30;99.90;;;;;;5112566;28;20448;-71
2023/09/22 04:40:57;;;;;;;907.50;858.50;;;12.30;99.90;;;;;;5112191;28;20448;-71
2023/09/22 04:43:25;;;;;;;917.10;867.40;;;12.40;99.90;;;;;;5112485;28;20804;-71
2023/09/22 04:45:51;;;;;;;922.03;872.03;;;12.40;99.90;;;;;;5112286;28;20504;-70
2023/09/22 04:48:20;;;;;;;936.83;886.43;;;12.50;99.90;;;;;;5112399;28;20444;-71
2023/09/22 04:50:54;;;;;;;932.40;882.20;;;12.50;99.90;;;;;;5111789;28;20499;-71
2023/09/22 04:53:21;;;;;;;936.77;886.27;;;12.50;99.90;;;;;;5112427;28;20931;-71
2023/09/22 04:55:48;;;;;;;925.33;875.67;;;12.40;99.90;;;;;;5112371;28;20444;-71
2023/09/22 04:58:16;;;;;;;939.07;888.90;;;12.30;99.90;;;;;;5112231;28;20807;-71
2023/09/22 05:00:43;;;;;;;934.07;884.30;;;12.30;99.90;;;;;;5111876;28;20559;-71
2023/09/22 05:03:10;;;;;;;927.23;877.63;;;12.40;99.90;;;;;;5111882;28;20456;-71
2023/09/22 05:05:39;;;;;;;928.30;878.63;;;12.40;99.90;;;;;;5112274;28;20480;-71
2023/09/22 05:08:07;;;;;;;926.80;877.20;;;12.30;99.90;;;;;;5112152;28;20501;-71
2023/09/22 05:10:34;;;;;;;909.13;860.33;;;12.30;99.90;;;;;;5111802;28;20506;-71
2023/09/22 05:13:00;;;;;;;906.20;857.70;;;12.20;99.90;;;;;;5114921;28;20534;-71
2023/09/22 05:15:29;;;;;;;904.40;856.10;;;12.20;99.90;;;;;;5115558;27;20928;-71
2023/09/22 05:17:56;;;;;;;898.53;850.73;;;12.10;99.90;;;;;;5115858;28;20819;-71
2023/09/22 05:20:24;;;;;;;887.27;840.17;;;12.00;99.90;;;;;;5115569;28;20521;-71
2023/09/22 05:22:52;;;;;;;908.07;860.47;;;11.90;99.90;;;;;;5115645;28;20517;-71
2023/09/22 05:25:19;;;;;;;901.30;854.17;;;11.80;99.90;;;;;;5115546;28;20846;-71
2023/09/22 05:27:46;;;;;;;870.17;825.17;;;11.70;99.90;;;;;;5115491;28;20445;-71
2023/09/22 05:30:13;;;;;;;870.10;825.00;;;11.60;99.90;;;;;;5115086;28;20453;-71
2023/09/22 05:32:41;;;;;;;849.87;806.10;;;11.60;99.90;;;;;;5115623;28;20444;-71
2023/09/22 05:35:08;;;;;;;837.20;793.60;;;11.50;99.90;;;;;;5115541;28;20449;-71
2023/09/22 05:37:35;;;;;;;835.37;791.57;;;11.50;99.90;;;;;;5115355;28;20536;-71
2023/09/22 05:40:12;;;;;;;836.80;792.63;;;11.60;99.90;;;;;;5115592;28;21089;-71
2023/09/22 05:42:39;;;;;;;837.97;794.03;;;11.60;99.90;;;;;;5115177;28;20863;-71
2023/09/22 05:45:07;;;;;;;869.10;823.10;;;11.60;99.90;;;;;;5115369;28;20483;-71
2023/09/22 05:47:35;;;;;;;870.90;824.70;;;11.60;99.90;;;;;;5115495;27;20452;-71
2023/09/22 05:50:02;;;;;;;882.70;835.90;;;11.60;99.90;;;;;;5115000;28;20828;-71
2023/09/22 05:52:30;;;;;;;902.10;854.43;;;11.70;99.90;;;;;;5114894;28;20459;-71
2023/09/22 05:54:57;;;;;;;900.90;853.00;;;11.80;99.90;;;;;;5115011;27;20853;-71
2023/09/22 05:57:25;;;;;;;908.07;859.87;;;11.80;99.90;;;;;;5114757;28;20441;-71
2023/09/22 05:59:53;;;;;;;905.20;857.20;;;11.80;99.90;;;;;;5114773;28;20451;-75
2023/09/22 06:02:20;;;;;;;895.13;847.33;;;11.80;99.90;;;;;;5114897;28;20445;-71
2023/09/22 06:04:47;;;;;;;915.93;866.93;;;11.80;99.90;;;;;;5115009;28;20452;-71
2023/09/22 06:07:14;;;;;;;904.73;856.43;;;11.80;99.90;;;;;;5114124;28;20440;-71
2023/09/22 06:09:41;;;;;;;930.03;880.43;;;11.80;99.90;;;;;;5114415;28;20441;-71
2023/09/22 06:12:08;;;;;;;905.73;856.93;;;11.80;99.90;;;;;;5114808;28;20451;-71
2023/09/22 06:14:36;;;;;;;886.03;838.13;;;12.00;99.90;;;;;;5114692;28;20459;-71
2023/09/22 06:17:03;;;;;;;891.20;843.00;;;12.10;99.90;;;;;;5114627;28;20856;-71
2023/09/22 06:19:30;;;;;;;891.63;843.17;;;12.10;99.90;;;;;;5114392;28;20954;-71
2023/09/22 06:21:57;;;;;;;909.03;859.73;;;12.20;99.90;;;;;;5114280;28;20445;-71
2023/09/22 06:24:24;;;;;;;892.23;843.53;;;12.20;99.90;;;;;;5114100;28;20948;-71
2023/09/22 06:26:53;;;;;;;891.93;843.23;;;12.30;99.90;;;;;;5114613;28;20480;-71
2023/09/22 06:29:20;;;;;;;899.67;850.60;;;12.40;99.90;;;;;;5114484;28;20527;-71
2023/09/22 06:31:48;;;;;;;896.77;847.90;;;12.50;99.90;;;;;;5114184;27;20449;-72
2023/09/22 06:34:15;;;;;;;921.40;871.50;;;12.50;99.90;;;;;;5114346;28;20453;-71
2023/09/22 06:36:41;;;;;;;935.30;884.40;;;12.60;99.90;;;;;;5114062;28;20936;-73
2023/09/22 06:39:09;;;;;;;915.20;865.60;;;12.70;99.90;;;;;;5114357;28;20463;-73
2023/09/22 06:41:36;;;;;;;903.47;854.37;;;12.70;99.90;;;;;;5114145;28;20555;-72
2023/09/22 06:44:04;;;;;;;918.17;868.07;;;12.70;99.90;;;;;;5114188;28;20445;-74
2023/09/22 06:46:35;;;;;;;903.57;854.40;;;12.70;99.90;;;;;;5114042;28;20585;-71
2023/09/22 06:49:05;;;;;;;909.43;859.73;;;12.80;99.90;;;;;;5113866;28;20857;-72
2023/09/22 06:51:33;;;;;;;931.23;880.53;;;12.90;99.90;;;;;;5113509;28;20464;-71
2023/09/22 06:54:00;;;;;;;903.13;853.63;;;13.00;99.90;;;;;;5113816;28;20444;-72
2023/09/22 06:56:27;;;;;;;889.20;840.63;;;13.10;99.90;;;;;;5113995;28;20441;-72
2023/09/22 06:58:53;;;;;;;903.47;853.97;;;13.20;99.90;;;;;;5113754;27;20444;-72
2023/09/22 07:01:20;;;;;;;925.60;875.00;;;13.30;99.90;;;;;;5113551;28;20553;-73
2023/09/22 07:03:48;;;;;;;922.53;872.17;;;13.50;99.90;;;;;;5113624;28;20501;-73
2023/09/22 07:06:16;;;;;;;905.53;855.77;;;13.60;99.90;;;;;;5113481;28;21013;-73
2023/09/22 07:08:46;;;;;;;850.47;803.43;;;13.70;99.90;;;;;;5113551;28;20445;-72
2023/09/22 07:11:13;;;;;;;869.70;822.00;;;13.80;99.90;;;;;;5113334;28;20452;-73
2023/09/22 07:13:40;;;;;;;863.23;815.60;;;13.80;99.90;;;;;;5113548;28;20454;-72
2023/09/22 07:16:07;;;;;;;866.20;818.30;;;13.90;99.90;;;;;;5113665;28;20441;-71
2023/09/22 07:18:34;;;;;;;859.63;812.33;;;13.90;99.90;;;;;;5113319;28;20452;-73
2023/09/22 07:21:01;;;;;;;838.20;792.47;;;14.00;99.90;;;;;;5113390;28;20790;-71
2023/09/22 07:23:30;;;;;;;770.30;729.03;;;14.10;99.90;;;;;;5113389;28;20455;-71
2023/09/22 07:26:01;;;;;;;726.73;688.30;;;14.10;99.90;;;;;;5113351;28;20472;-71
2023/09/22 07:28:29;;;;;;;722.30;684.10;;;14.20;99.90;;;;;;5113214;28;20448;-71
2023/09/22 07:30:56;;;;;;;705.60;668.57;;;14.30;99.90;;;;;;5112641;28;20531;-71
2023/09/22 07:33:29;;;;;;;682.33;646.67;;;14.40;99.90;;;;;;5124407;27;20812;-71
2023/09/22 07:35:56;;;;;;;637.80;606.90;;;14.50;99.90;;;;;;5132608;27;20448;-71
2023/09/22 07:38:24;;;;;;;647.80;615.93;;;14.50;99.90;;;;;;5133174;27;20450;-71
2023/09/22 07:40:52;;;;;;;619.97;590.37;;;14.60;99.90;;;;;;5133014;27;20470;-71
2023/09/22 07:43:19;;;;;;;639.27;607.87;;;14.70;99.90;;;;;;5133037;27;20448;-71
2023/09/22 07:45:46;;;;;;;569.50;543.10;;;14.70;99.90;;;;;;5132956;27;20476;-71
2023/09/22 07:48:13;;;;;;;535.30;511.17;;;14.70;99.90;;;;;;5133180;27;21040;-70
2023/09/22 07:50:41;;;;;;;574.07;547.27;;;14.80;99.90;;;;;;5132812;27;20547;-71
2023/09/22 07:53:08;;;;;;;555.10;530.30;;;14.90;99.90;;;;;;5133215;27;20448;-71
2023/09/22 07:55:38;;;;;;;587.77;560.80;;;15.00;99.90;;;;;;5133143;27;20463;-71
2023/09/22 07:58:06;;;;;;;503.43;481.83;;;15.10;99.90;;;;;;5132928;27;20527;-71
2023/09/22 08:00:34;;;;;;;522.53;500.13;;;15.20;99.90;;;;;;5132651;27;20452;-71
2023/09/22 08:03:01;;;;;;;492.93;471.70;;;15.40;99.90;;;;;;5132945;27;20814;-73
2023/09/22 08:05:28;;;;;;;433.70;416.20;;;15.50;99.90;;;;;;5132551;27;20444;-72
2023/09/22 08:07:55;;;;;;;439.93;421.93;;;15.60;99.90;;;;;;5132769;27;21052;-72
2023/09/22 08:10:23;;;;;;;359.50;345.13;;;15.80;99.90;;;;;;5133089;27;20456;-72
2023/09/22 08:12:50;;;;;;;377.13;362.03;;;16.00;99.90;;;;;;5133206;27;20455;-72
2023/09/22 08:15:18;;;;;;;340.33;326.63;;;16.30;99.90;;;;;;5133174;27;20534;-72
2023/09/22 08:17:47;;;;;;;364.90;350.13;;;16.60;99.90;;;;;;5133365;27;20445;-72
2023/09/22 08:20:15;;;;;;;339.80;325.80;;;17.00;99.90;;;;;;5133028;27;20553;-72
2023/09/22 08:22:42;;;;;;;351.97;337.27;;;17.30;99.90;;;;;;5133089;27;20542;-72
2023/09/22 08:25:10;;;;;;;335.57;321.27;;;17.80;99.90;;;;;;5132962;27;20954;-71
2023/09/22 08:27:37;;;;;;;319.08;305.63;;;18.10;99.90;;;;;;5132073;27;20488;-70
2023/09/22 08:30:09;;;;;;;297.90;285.83;;;18.40;99.90;;;;;;5133315;27;20649;-74
2023/09/22 08:32:39;;;;;;;259.90;249.67;;;19.10;99.90;;;;;;5133295;27;20541;-71
2023/09/22 08:35:08;;;;;;;211.17;202.97;;;19.30;94.80;;;;;;5133003;27;20541;-70
2023/09/22 08:37:37;;;;;;;171.70;165.20;;;19.40;94.80;;;;;;5132932;27;20858;-75
2023/09/22 08:40:09;;;;;;;137.80;132.83;;;19.40;91.30;;;;;;5132930;27;20447;-75
2023/09/22 08:42:37;;;;;;;77.10;74.30;;;18.90;88.70;;;;;;5132773;27;20464;-73
2023/09/22 08:45:07;;;;;;;46.80;45.00;;;18.50;90.30;;;;;;5133120;27;20290;-75
2023/09/22 08:47:39;;;;;;;34.53;33.13;;;17.80;90.80;;;;;;5136750;27;20512;-74
2023/09/22 08:50:11;;;;;;;27.30;26.10;;;17.50;94.10;;;;;;5136496;27;20450;-75
2023/09/22 08:52:39;;;;;;;22.77;21.77;;;17.40;94.00;;;;;;5136751;27;20532;-76
2023/09/22 08:55:10;;;;;;;23.17;22.17;;;17.40;94.00;;;;;;5136736;27;20449;-74
2023/09/22 08:57:39;;;;;;;23.80;22.80;;;17.80;94.20;;;;;;5136883;27;20489;-76
2023/09/22 09:00:11;;;;;;;26.73;25.40;;;18.30;94.40;;;;;;5136310;27;20454;-74
2023/09/22 09:02:39;;;;;;;23.07;22.07;;;18.90;91.20;;;;;;5136421;27;20526;-74
2023/09/22 09:05:21;;;;;;;22.23;21.23;;;19.10;87.90;;;;;;5136659;27;20811;-74
2023/09/22 09:07:48;;;;;;;20.37;19.47;;;19.50;85.60;;;;;;5136677;27;20472;-75
2023/09/22 09:10:26;;;;;;;19.03;18.13;;;19.90;78.60;;;;;;5136251;27;20959;-75
2023/09/22 09:12:54;;;;;;;16.60;15.80;;;20.00;70.10;;;;;;5136527;27;20449;-75
2023/09/22 09:15:26;;;;;;;13.10;12.40;;;20.40;70.50;;;;;;5136724;27;20459;-74
2023/09/22 09:18:08;;;;;;;10.80;10.20;;;20.30;62.10;;;;;;5136563;27;20908;-74
2023/09/22 09:20:40;;;;;;;8.30;7.80;;;20.90;62.70;;;;;;5133954;27;20813;-74
2023/09/22 09:23:15;;;;;;;7.50;7.00;;;21.20;62.90;;;;;;5136264;27;20443;-74
2023/09/22 09:25:46;;;;;;;5.80;5.30;;;21.30;58.20;;;;;;5132928;27;20448;-74
2023/09/22 09:28:15;;;;;;;4.30;3.60;;;21.30;54.40;;;;;;5114135;28;20450;-73
2023/09/22 09:30:50;;;;;;;3.80;2.70;;;20.70;60.00;;;;;;5114328;28;20212;-73
2023/09/22 09:33:16;;;;;;;3.80;2.50;;;19.70;52.90;;;;;;5115405;28;20448;-67
2023/09/22 09:35:45;;;;;;;3.80;2.10;;;19.30;58.60;;;;;;5115590;27;20452;-67
2023/09/22 09:38:13;;;;;;;3.90;2.13;;;19.10;61.10;;;;;;5115370;28;20456;-67
2023/09/22 09:40:41;;;;;;;3.70;1.70;;;18.50;60.50;;;;;;5115536;28;20454;-67
2023/09/22 09:43:10;;;;;;;3.60;1.60;;;18.60;68.80;;;;;;5115494;28;20863;-66
2023/09/22 09:45:44;;;;;;;3.60;1.60;;;18.50;68.70;;;;;;5115433;28;20458;-65
2023/09/22 09:48:14;;;;;;;3.70;1.60;;;19.40;61.30;;;;;;5115198;28;21007;-66
2023/09/22 09:50:44;;;;;;;3.50;1.40;;;20.30;53.50;;;;;;5114821;28;20511;-65
2023/09/22 09:53:27;;;;;;;3.50;1.20;;;20.80;54.00;;;;;;5115402;28;20538;-65
2023/09/22 09:55:58;;;;;;;3.47;1.00;;;20.60;44.90;;;;;;5115167;28;20993;-66
2023/09/22 09:58:28;;;;;;;3.43;1.00;;;20.30;46.10;;;;;;5114414;28;20458;-66
2023/09/22 10:00:56;;;;;;;3.50;1.07;;;20.00;44.40;;;;;;5115058;28;20918;-66
2023/09/22 10:03:24;;;;;;;3.40;0.90;;;19.90;47.40;;;;;;5115195;28;20807;-66
2023/09/22 10:05:52;;;;;;;3.40;0.80;;;19.50;51.10;;;;;;5114943;28;20447;-65
2023/09/22 10:08:21;;;;;;;3.57;1.00;;;19.20;47.40;;;;;;5114995;28;20493;-66
2023/09/22 10:10:50;;;;;;;3.60;1.17;;;18.80;48.70;;;;;;5114747;28;20812;-65
2023/09/22 10:13:17;;;;;;;3.50;0.80;;;18.70;52.00;;;;;;5114704;28;20481;-66
2023/09/22 10:15:56;;;;;;;3.50;0.80;;;18.60;52.00;;;;;;5114753;28;20841;-66
2023/09/22 10:18:44;;;;;;;4.67;2.50;;;18.90;58.30;;;;;;5114889;27;20451;-66
2023/09/22 10:21:32;;;;;;;3.53;1.00;;;19.20;52.60;;;;;;5114512;28;20449;-67
2023/09/22 10:37:23;;;;;;;3.40;0.90;;;19.50;52.70;;;;;;6235414;22;1465625;-64
2023/09/22 10:39:58;;;;;;;3.40;0.70;;;19.80;45.10;;;;;;6284607;22;20176;-64
2023/09/22 10:42:26;;;;;;;3.50;0.90;;;19.80;44.20;;;;;;6284836;22;20385;-64
2023/09/22 10:44:58;;;;;;;3.70;1.20;;;20.80;38.50;;;;;;6294319;22;20466;-65
2023/09/22 10:47:27;;;;;;;3.50;0.77;;;21.00;29.50;;;;;;6284500;22;20494;-65
2023/09/22 10:49:54;;;;;;;3.47;0.80;;;21.40;36.60;;;;;;6284095;22;20408;-64
2023/09/22 10:52:22;;;;;;;3.40;0.70;;;22.20;28.60;;;;;;6284426;22;20411;-64
2023/09/22 10:54:49;;;;;;;3.43;0.70;;;22.70;21.70;;;;;;6284137;22;20861;-65
2023/09/22 10:57:27;;;;;;;3.47;0.70;;;22.30;21.40;;;;;;6282584;22;20431;-65
2023/09/22 10:59:55;;;;;;;3.40;0.70;;;21.40;20.70;;;;;;6283540;22;20442;-65
2023/09/22 11:02:23;;;;;;;3.60;0.90;;;21.80;21.00;;;;;;6283836;22;20413;-65
2023/09/22 11:04:50;;;;;;;3.40;0.60;;;21.90;20.60;;;;;;6283861;22;20712;-65
2023/09/22 11:07:34;;;;;;;3.53;0.70;;;22.20;21.30;;;;;;6283542;22;20413;-65
2023/09/22 11:10:01;;;;;;;3.50;0.60;;;22.50;19.70;;;;;;6283639;22;20405;-65
2023/09/22 11:12:29;;;;;;;3.50;0.60;;;23.00;14.40;;;;;;6283534;22;20414;-66
2023/09/22 11:14:56;;;;;;;3.50;0.70;;;23.70;14.90;;;;;;6283754;22;20412;-65
2023/09/22 11:17:23;;;;;;;3.57;0.60;;;24.20;10.10;;;;;;6283873;22;20406;-65
2023/09/22 11:19:53;;;;;;;3.50;0.60;;;23.90;7.40;;;;;;6283769;22;20786;-65
2023/09/22 11:22:21;;;;;;;3.53;0.70;;;24.40;7.70;;;;;;6283348;22;20448;-65
2023/09/22 11:24:49;;;;;;;3.50;0.60;;;25.00;8.10;;;;;;6283594;22;20417;-65
2023/09/22 11:27:16;;;;;;;4.73;1.33;;;25.20;1.00;;;;;;6283396;22;20492;-65
2023/09/22 11:29:42;;;;;;;3.63;0.83;;;25.60;1.00;;;;;;6283158;22;20405;-65
2023/09/22 11:32:10;;;;;;;3.53;0.50;;;25.00;1.00;;;;;;6283073;22;20908;-65
2023/09/22 11:34:47;;;;;;;3.50;0.50;;;24.30;1.00;;;;;;6283464;22;20405;-64
2023/09/22 11:37:14;;;;;;;3.57;0.60;;;23.40;5.20;;;;;;6279277;22;20460;-65
2023/09/22 11:39:40;;;;;;;3.60;0.60;;;22.60;6.40;;;;;;6276754;22;20497;-65
2023/09/22 11:42:09;;;;;;;3.60;0.60;;;22.10;11.10;;;;;;6276196;22;20492;-65
2023/09/22 11:44:35;;;;;;;3.60;0.60;;;21.50;13.20;;;;;;6276696;22;20448;-65
2023/09/22 11:47:03;;;;;;;3.60;0.60;;;21.30;13.20;;;;;;6276454;22;20435;-65
2023/09/22 11:49:37;;;;;;;3.60;0.60;;;21.10;13.00;;;;;;6276652;22;20770;-64
2023/09/22 11:52:04;;;;;;;3.77;0.97;;;22.00;13.60;;;;;;6276515;22;20416;-64
2023/09/22 11:54:34;;;;;;;3.50;0.60;;;22.30;13.90;;;;;;6276293;22;20412;-64
2023/09/22 11:57:03;;;;;;;3.63;0.60;;;22.90;6.60;;;;;;6276707;22;20391;-64
2023/09/22 11:59:34;;;;;;;3.60;0.60;;;23.70;7.20;;;;;;6276499;22;20730;-64
2023/09/22 12:02:01;;;;;;;5.27;1.10;;;24.30;3.70;;;;;;6276290;22;20430;-64
2023/09/22 12:04:28;;;;;;;4.77;1.30;;;23.80;1.00;;;;;;6276076;22;20406;-64
2023/09/22 12:06:56;;;;;;;5.57;1.70;;;22.90;1.00;;;;;;6276565;22;20437;-65
2023/09/22 12:09:23;;;;;;;5.60;1.23;;;22.10;6.10;;;;;;6276473;22;20410;-64
2023/09/22 12:11:50;;;;;;;6.90;1.40;;;22.50;2.50;;;;;;6276323;22;20441;-65
2023/09/22 12:14:17;;;;;;;7.07;1.70;;;24.00;1.00;;;;;;6275820;22;20406;-64
2023/09/22 12:16:45;;;;;;;6.27;1.60;;;25.10;1.00;;;;;;6276145;22;20408;-64
2023/09/22 12:19:14;;;;;;;6.63;1.40;;;26.30;1.00;;;;;;6275930;22;20898;-65
2023/09/22 12:21:40;;;;;;;6.10;1.47;;;25.60;1.00;;;;;;6276379;22;20418;-65
2023/09/22 12:24:08;;;;;;;5.73;1.20;;;26.40;1.00;;;;;;6275868;22;20894;-64
2023/09/22 12:26:35;;;;;;;4.97;1.47;;;26.90;1.00;;;;;;6276322;22;20433;-66
2023/09/22 12:29:04;;;;;;;5.20;1.40;;;26.40;1.00;;;;;;6276437;22;20406;-65
2023/09/22 12:31:31;;;;;;;4.53;1.10;;;27.30;1.00;;;;;;6276101;22;20519;-66
2023/09/22 12:33:59;;;;;;;7.80;1.60;;;28.10;1.00;;;;;;6276474;22;20406;-66
2023/09/22 12:36:26;;;;;;;7.30;1.50;;;27.90;1.00;;;;;;6275611;22;20442;-66